KLRF/LRF METAR and TAF weather

Enter ICAO airport designator
Station Type Date Time Source
KLRF METAR 2019/08/24 21:56 UTC NOAA

KLRF 242156Z AUTO 05008KT 10SM FEW013 SCT230 26/23 A2995 RMK AO2 SLP142 T02630231 $


Station Type Date Time Source
KLRF Decoded METAR 2019/08/24 21:56 UTC NOAA

Station name not available
Aug 24, 2019 - 05:56 PM EDT / 2019.08.24 2156 UTC
Wind: from the NE (050 degrees) at 9 MPH (8 KT):0
Visibility: 10 mile(s):0
Sky conditions: partly cloudy
Temperature: 79.3 F (26.3 C)
Dew Point: 73.6 F (23.1 C)
Relative Humidity: 82%
Pressure (altimeter): 29.95 in. Hg (1014 hPa)
ob: KLRF 242156Z AUTO 05008KT 10SM FEW013 SCT230 26/23 A2995 RMK AO2 SLP142 T02630231
cycle: 22

Station Type Date Time Source
KLRF TAF 2019/08/24 20:57 UTC NOAA

TAF TAF
AMD KLRF 242047Z 2420/2521 06009KT 9999 VCSH SCT017 BKN030 BKN200 QNH2996INS
TEMPO 2420/2423 VRB10G15KT 6000 -TSRA OVC017CB
BECMG 2422/2423 08009KT 9999 VCTS BKN020CB BKN200 QNH2998INS
BECMG 2502/2503 07009KT 9999 NSW BKN015 BKN200 QNH2994INS
BECMG 2506/2507 07009KT 9999 OVC008 QNH2993INS
BECMG 2517/2518 09009KT 8000 -TSRA BKN015CB BKN200 QNH2986INS TX28/2421Z TN22/2511Z

Example: see airport list